^^
Station Historical Data
Daily Summary for July 27, 2017 Units:  Both    English   Metric
« Previous Day
Next Day »
Daily Weekly Monthly Yearly Custom
  High: Low: Average:
Temperature: 72.1 °F /  22.3 °C 47.1 °F /  8.4 °C 57.6 °F /  14.2 °C
Dew Point: 25.7 °F /  -3.5 °C 19.8 °F /  -6.8 °C 23.2 °F /  -4.9 °C
Humidity: 42% 14% 28%
Wind Speed: 8.9mph /  14.3km/h - 1.1mph /  1.8km/h
Wind Gust: 13.0mph /  20.9km/h - -
Wind- - East
Pressure: 30.44 in /  1030.7 hPa 30.31 in /  1026.3 hPa -
Precipitation: 0.00 in /  0 mm    
Historical Graphs
 
 
Tabular Data for July 27, 2017
Time Temperature Dew Point Pressure Wind Wind Speed Wind Gust Humidity Rainfall Rate (Hourly) solar Conditions
00:00 47.1 °F /  8.4 °C 24.6 °F /  -4.1 °C 30.39in /  1029hPa NNE 0.9mph /  1.4km/h 2.0mph /  3.2km/h 41% 0.00in /  0mm 0.0 W/m2
00:06 47.5 °F /  8.6 °C 25.0 °F /  -3.9 °C 30.39in /  1029hPa Calm     41% 0.00in /  0mm 0.0 W/m2
00:12 48.0 °F /  8.9 °C 24.8 °F /  -4 °C 30.39in /  1029hPa NE 0.9mph /  1.4km/h 4.0mph /  6.4km/h 40% 0.00in /  0mm 0.0 W/m2
00:18 48.6 °F /  9.2 °C 24.8 °F /  -4 °C 30.39in /  1029hPa Calm   4.0mph /  6.4km/h 39% 0.00in /  0mm 0.0 W/m2
00:24 49.1 °F /  9.5 °C 25.2 °F /  -3.8 °C 30.38in /  1028.7hPa Calm   2.0mph /  3.2km/h 39% 0.00in /  0mm 0.0 W/m2
00:30 49.5 °F /  9.7 °C 25.0 °F /  -3.9 °C 30.38in /  1028.7hPa East 0.9mph /  1.4km/h 3.0mph /  4.8km/h 38% 0.00in /  0mm 0.0 W/m2
00:37 49.8 °F /  9.9 °C 25.2 °F /  -3.8 °C 30.38in /  1028.7hPa Calm   1.0mph /  1.6km/h 38% 0.00in /  0mm 0.0 W/m2
00:43 50.2 °F /  10.1 °C 25.0 °F /  -3.9 °C 30.38in /  1028.7hPa Calm   4.0mph /  6.4km/h 37% 0.00in /  0mm 0.0 W/m2
00:49 50.5 °F /  10.3 °C 25.2 °F /  -3.8 °C 30.38in /  1028.7hPa Calm   3.0mph /  4.8km/h 37% 0.00in /  0mm 0.0 W/m2
00:55 51.1 °F /  10.6 °C 25.7 °F /  -3.5 °C 30.38in /  1028.7hPa East 2.0mph /  3.2km/h 5.0mph /  8km/h 37% 0.00in /  0mm 0.0 W/m2
01:01 51.3 °F /  10.7 °C 25.2 °F /  -3.8 °C 30.38in /  1028.7hPa SE 4.0mph /  6.4km/h 4.0mph /  6.4km/h 36% 0.00in /  0mm 0.0 W/m2
01:07 51.4 °F /  10.8 °C 25.3 °F /  -3.7 °C 30.38in /  1028.7hPa East 0.9mph /  1.4km/h 6.0mph /  9.7km/h 36% 0.00in /  0mm 0.0 W/m2
01:13 51.6 °F /  10.9 °C 25.5 °F /  -3.6 °C 30.38in /  1028.7hPa Calm   3.0mph /  4.8km/h 36% 0.00in /  0mm 0.0 W/m2
01:20 51.6 °F /  10.9 °C 25.5 °F /  -3.6 °C 30.38in /  1028.7hPa Calm   2.0mph /  3.2km/h 36% 0.00in /  0mm 0.0 W/m2
01:26 51.6 °F /  10.9 °C 25.5 °F /  -3.6 °C 30.38in /  1028.7hPa East 0.9mph /  1.4km/h 4.0mph /  6.4km/h 36% 0.00in /  0mm 0.0 W/m2
01:32 51.4 °F /  10.8 °C 25.3 °F /  -3.7 °C 30.38in /  1028.7hPa Calm   5.0mph /  8km/h 36% 0.00in /  0mm 0.0 W/m2
01:34 51.4 °F /  10.8 °C 25.3 °F /  -3.7 °C 30.38in /  1028.7hPa Calm     36% 0.00in /  0mm 0.0 W/m2
01:40 51.4 °F /  10.8 °C 25.3 °F /  -3.7 °C 30.38in /  1028.7hPa Calm   3.0mph /  4.8km/h 36% 0.00in /  0mm 0.0 W/m2
01:46 51.3 °F /  10.7 °C 25.2 °F /  -3.8 °C 30.38in /  1028.7hPa East 2.9mph /  4.7km/h 3.0mph /  4.8km/h 36% 0.00in /  0mm 0.0 W/m2
01:52 51.3 °F /  10.7 °C 25.2 °F /  -3.8 °C 30.38in /  1028.7hPa Calm   5.0mph /  8km/h 36% 0.00in /  0mm 0.0 W/m2
01:59 51.1 °F /  10.6 °C 25.0 °F /  -3.9 °C 30.37in /  1028.3hPa Calm   2.0mph /  3.2km/h 36% 0.00in /  0mm 0.0 W/m2
02:05 50.9 °F /  10.5 °C 25.5 °F /  -3.6 °C 30.37in /  1028.3hPa Calm   1.0mph /  1.6km/h 37% 0.00in /  0mm 0.0 W/m2
02:11 50.7 °F /  10.4 °C 25.3 °F /  -3.7 °C 30.37in /  1028.3hPa Calm     37% 0.00in /  0mm 0.0 W/m2
02:17 50.5 °F /  10.3 °C 25.2 °F /  -3.8 °C 30.37in /  1028.3hPa ENE 0.9mph /  1.4km/h 2.0mph /  3.2km/h 37% 0.00in /  0mm 0.0 W/m2
02:23 50.5 °F /  10.3 °C 25.2 °F /  -3.8 °C 30.37in /  1028.3hPa Calm     37% 0.00in /  0mm 0.0 W/m2
02:29 50.2 °F /  10.1 °C 25.0 °F /  -3.9 °C 30.36in /  1028hPa Calm   3.0mph /  4.8km/h 37% 0.00in /  0mm 0.0 W/m2
02:35 49.8 °F /  9.9 °C 25.2 °F /  -3.8 °C 30.37in /  1028.3hPa Calm   4.0mph /  6.4km/h 38% 0.00in /  0mm 0.0 W/m2
02:42 49.6 °F /  9.8 °C 25.7 °F /  -3.5 °C 30.37in /  1028.3hPa Calm     39% 0.00in /  0mm 0.0 W/m2
02:48 49.3 °F /  9.6 °C 25.3 °F /  -3.7 °C 30.37in /  1028.3hPa Calm   1.0mph /  1.6km/h 39% 0.00in /  0mm 0.0 W/m2
02:54 49.1 °F /  9.5 °C 25.2 °F /  -3.8 °C 30.36in /  1028hPa Calm     39% 0.00in /  0mm 0.0 W/m2
03:00 48.7 °F /  9.3 °C 25.5 °F /  -3.6 °C 30.36in /  1028hPa Calm   2.0mph /  3.2km/h 40% 0.00in /  0mm 0.0 W/m2
03:06 48.7 °F /  9.3 °C 25.5 °F /  -3.6 °C 30.36in /  1028hPa Calm     40% 0.00in /  0mm 0.0 W/m2
03:12 48.6 °F /  9.2 °C 25.3 °F /  -3.7 °C 30.36in /  1028hPa Calm   2.0mph /  3.2km/h 40% 0.00in /  0mm 0.0 W/m2
03:18 48.4 °F /  9.1 °C 25.2 °F /  -3.8 °C 30.36in /  1028hPa Calm   3.0mph /  4.8km/h 40% 0.00in /  0mm 0.0 W/m2
03:25 48.4 °F /  9.1 °C 25.2 °F /  -3.8 °C 30.36in /  1028hPa Calm     40% 0.00in /  0mm 0.0 W/m2
03:31 48.4 °F /  9.1 °C 25.2 °F /  -3.8 °C 30.36in /  1028hPa Calm     40% 0.00in /  0mm 0.0 W/m2
03:37 48.2 °F /  9 °C 25.5 °F /  -3.6 °C 30.36in /  1028hPa ESE 4.0mph /  6.4km/h 5.0mph /  8km/h 41% 0.00in /  0mm 0.0 W/m2
03:43 48.2 °F /  9 °C 25.5 °F /  -3.6 °C 30.36in /  1028hPa ENE 0.9mph /  1.4km/h 1.0mph /  1.6km/h 41% 0.00in /  0mm 0.0 W/m2
03:49 48.0 °F /  8.9 °C 25.5 °F /  -3.6 °C 30.36in /  1028hPa Calm   1.0mph /  1.6km/h 41% 0.00in /  0mm 0.0 W/m2
03:55 48.0 °F /  8.9 °C 25.5 °F /  -3.6 °C 30.36in /  1028hPa East 0.9mph /  1.4km/h 3.0mph /  4.8km/h 41% 0.00in /  0mm 0.0 W/m2
04:01 47.8 °F /  8.8 °C 25.3 °F /  -3.7 °C 30.36in /  1028hPa Calm     41% 0.00in /  0mm 0.0 W/m2
04:07 47.8 °F /  8.8 °C 25.3 °F /  -3.7 °C 30.36in /  1028hPa Calm     41% 0.00in /  0mm 0.0 W/m2
04:13 47.7 °F /  8.7 °C 25.7 °F /  -3.5 °C 30.36in /  1028hPa ENE 0.9mph /  1.4km/h 1.0mph /  1.6km/h 42% 0.00in /  0mm 0.0 W/m2
04:20 47.5 °F /  8.6 °C 25.5 °F /  -3.6 °C 30.36in /  1028hPa Calm   2.0mph /  3.2km/h 42% 0.00in /  0mm 0.0 W/m2
04:26 47.5 °F /  8.6 °C 25.5 °F /  -3.6 °C 30.36in /  1028hPa Calm   3.0mph /  4.8km/h 42% 0.00in /  0mm 0.0 W/m2
04:32 47.7 °F /  8.7 °C 25.7 °F /  -3.5 °C 30.37in /  1028.3hPa East 2.0mph /  3.2km/h 2.0mph /  3.2km/h 42% 0.00in /  0mm 0.0 W/m2
04:38 47.8 °F /  8.8 °C 25.3 °F /  -3.7 °C 30.37in /  1028.3hPa Calm   5.0mph /  8km/h 41% 0.00in /  0mm 0.0 W/m2
04:44 48.4 °F /  9.1 °C 25.7 °F /  -3.5 °C 30.37in /  1028.3hPa Calm   7.0mph /  11.3km/h 41% 0.00in /  0mm 0.0 W/m2
04:50 48.7 °F /  9.3 °C 25.5 °F /  -3.6 °C 30.37in /  1028.3hPa Calm   1.0mph /  1.6km/h 40% 0.00in /  0mm 0.0 W/m2
04:56 48.9 °F /  9.4 °C 25.7 °F /  -3.5 °C 30.38in /  1028.7hPa Calm   4.0mph /  6.4km/h 40% 0.00in /  0mm 0.0 W/m2
05:02 49.3 °F /  9.6 °C 25.3 °F /  -3.7 °C 30.38in /  1028.7hPa East 2.0mph /  3.2km/h 5.0mph /  8km/h 39% 0.00in /  0mm 0.0 W/m2
05:09 49.5 °F /  9.7 °C 25.0 °F /  -3.9 °C 30.38in /  1028.7hPa Calm   4.0mph /  6.4km/h 38% 0.00in /  0mm 0.0 W/m2
05:15 49.5 °F /  9.7 °C 25.0 °F /  -3.9 °C 30.38in /  1028.7hPa Calm   4.0mph /  6.4km/h 38% 0.00in /  0mm 0.0 W/m2
05:21 49.5 °F /  9.7 °C 25.0 °F /  -3.9 °C 30.38in /  1028.7hPa Calm   4.0mph /  6.4km/h 38% 0.00in /  0mm 0.0 W/m2
05:27 49.5 °F /  9.7 °C 25.0 °F /  -3.9 °C 30.38in /  1028.7hPa Calm   4.0mph /  6.4km/h 38% 0.00in /  0mm 0.0 W/m2
05:35 49.5 °F /  9.7 °C 25.0 °F /  -3.9 °C 30.38in /  1028.7hPa Calm   3.0mph /  4.8km/h 38% 0.00in /  0mm 0.0 W/m2
05:41 49.5 °F /  9.7 °C 25.0 °F /  -3.9 °C 30.38in /  1028.7hPa Calm   5.0mph /  8km/h 38% 0.00in /  0mm 0.0 W/m2
05:47 49.3 °F /  9.6 °C 24.8 °F /  -4 °C 30.38in /  1028.7hPa Calm   6.0mph /  9.7km/h 38% 0.00in /  0mm 0.0 W/m2
05:53 49.1 °F /  9.5 °C 24.6 °F /  -4.1 °C 30.39in /  1029hPa East 0.9mph /  1.4km/h 4.0mph /  6.4km/h 38% 0.00in /  0mm 0.0 W/m2
05:59 48.9 °F /  9.4 °C 24.4 °F /  -4.2 °C 30.39in /  1029hPa Calm   3.0mph /  4.8km/h 38% 0.00in /  0mm 0.0 W/m2
06:06 48.7 °F /  9.3 °C 24.3 °F /  -4.3 °C 30.40in /  1029.3hPa Calm   4.0mph /  6.4km/h 38% 0.00in /  0mm 0.0 W/m2
06:12 48.6 °F /  9.2 °C 24.1 °F /  -4.4 °C 30.40in /  1029.3hPa East 2.0mph /  3.2km/h 8.0mph /  12.9km/h 38% 0.00in /  0mm 0.0 W/m2
06:18 48.6 °F /  9.2 °C 24.1 °F /  -4.4 °C 30.40in /  1029.3hPa Calm   1.0mph /  1.6km/h 38% 0.00in /  0mm 0.0 W/m2
06:24 48.2 °F /  9 °C 23.7 °F /  -4.6 °C 30.41in /  1029.7hPa Calm     38% 0.00in /  0mm 0.0 W/m2
06:30 47.8 °F /  8.8 °C 23.5 °F /  -4.7 °C 30.41in /  1029.7hPa Calm   1.0mph /  1.6km/h 38% 0.00in /  0mm 0.0 W/m2
06:36 47.7 °F /  8.7 °C 23.9 °F /  -4.5 °C 30.41in /  1029.7hPa Calm   1.0mph /  1.6km/h 39% 0.00in /  0mm 7.0 W/m2
06:42 47.5 °F /  8.6 °C 23.7 °F /  -4.6 °C 30.41in /  1029.7hPa Calm   1.0mph /  1.6km/h 39% 0.00in /  0mm 11.0 W/m2
06:48 47.5 °F /  8.6 °C 23.7 °F /  -4.6 °C 30.41in /  1029.7hPa Calm   1.0mph /  1.6km/h 39% 0.00in /  0mm 12.0 W/m2
06:55 47.3 °F /  8.5 °C 23.5 °F /  -4.7 °C 30.42in /  1030hPa Calm   4.0mph /  6.4km/h 39% 0.00in /  0mm 14.0 W/m2
07:01 47.7 °F /  8.7 °C 23.9 °F /  -4.5 °C 30.42in /  1030hPa Calm   2.0mph /  3.2km/h 39% 0.00in /  0mm 16.0 W/m2
07:07 48.0 °F /  8.9 °C 23.5 °F /  -4.7 °C 30.42in /  1030hPa Calm   2.0mph /  3.2km/h 38% 0.00in /  0mm 19.0 W/m2
07:13 48.4 °F /  9.1 °C 23.4 °F /  -4.8 °C 30.42in /  1030hPa ENE 2.9mph /  4.7km/h 5.0mph /  8km/h 37% 0.00in /  0mm 19.0 W/m2
07:19 48.9 °F /  9.4 °C 23.7 °F /  -4.6 °C 30.42in /  1030hPa NNE 0.9mph /  1.4km/h 3.0mph /  4.8km/h 37% 0.00in /  0mm 21.0 W/m2
07:25 49.5 °F /  9.7 °C 23.5 °F /  -4.7 °C 30.42in /  1030hPa NNE 2.9mph /  4.7km/h 6.0mph /  9.7km/h 36% 0.00in /  0mm 23.0 W/m2
07:32 50.4 °F /  10.2 °C 23.7 °F /  -4.6 °C 30.43in /  1030.4hPa NE 2.0mph /  3.2km/h 5.0mph /  8km/h 35% 0.00in /  0mm 25.0 W/m2
07:38 50.7 °F /  10.4 °C 23.4 °F /  -4.8 °C 30.43in /  1030.4hPa Calm   5.0mph /  8km/h 34% 0.00in /  0mm 26.0 W/m2
07:44 51.4 °F /  10.8 °C 24.1 °F /  -4.4 °C 30.43in /  1030.4hPa Calm   3.0mph /  4.8km/h 34% 0.00in /  0mm 28.0 W/m2
07:50 52.0 °F /  11.1 °C 23.7 °F /  -4.6 °C 30.43in /  1030.4hPa Calm   3.0mph /  4.8km/h 33% 0.00in /  0mm 30.0 W/m2
07:56 52.9 °F /  11.6 °C 23.9 °F /  -4.5 °C 30.43in /  1030.4hPa East 0.9mph /  1.4km/h 4.0mph /  6.4km/h 32% 0.00in /  0mm 30.0 W/m2
08:02 53.8 °F /  12.1 °C 23.9 °F /  -4.5 °C 30.43in /  1030.4hPa NE 8.9mph /  14.3km/h 9.0mph /  14.5km/h 31% 0.00in /  0mm 32.0 W/m2
08:08 54.7 °F /  12.6 °C 23.9 °F /  -4.5 °C 30.44in /  1030.7hPa East 2.0mph /  3.2km/h 8.0mph /  12.9km/h 30% 0.00in /  0mm 33.0 W/m2
08:14 55.2 °F /  12.9 °C 24.3 °F /  -4.3 °C 30.44in /  1030.7hPa North 0.9mph /  1.4km/h 7.0mph /  11.3km/h 30% 0.00in /  0mm 40.0 W/m2
08:21 56.1 °F /  13.4 °C 24.3 °F /  -4.3 °C 30.44in /  1030.7hPa ENE 2.0mph /  3.2km/h 9.0mph /  14.5km/h 29% 0.00in /  0mm 352.0 W/m2
08:27 57.0 °F /  13.9 °C 24.3 °F /  -4.3 °C 30.44in /  1030.7hPa Calm   5.0mph /  8km/h 28% 0.00in /  0mm 371.0 W/m2
08:33 58.1 °F /  14.5 °C 24.3 °F /  -4.3 °C 30.44in /  1030.7hPa NNE 2.0mph /  3.2km/h 7.0mph /  11.3km/h 27% 0.00in /  0mm 392.0 W/m2
08:39 59.0 °F /  15 °C 25.0 °F /  -3.9 °C 30.44in /  1030.7hPa Calm   4.0mph /  6.4km/h 27% 0.00in /  0mm 411.0 W/m2
08:45 59.9 °F /  15.5 °C 25.0 °F /  -3.9 °C 30.44in /  1030.7hPa Calm   7.0mph /  11.3km/h 26% 0.00in /  0mm 431.0 W/m2
08:51 60.4 °F /  15.8 °C 24.4 °F /  -4.2 °C 30.44in /  1030.7hPa East 2.0mph /  3.2km/h 5.0mph /  8km/h 25% 0.00in /  0mm 452.0 W/m2
08:57 60.8 °F /  16 °C 24.8 °F /  -4 °C 30.44in /  1030.7hPa NE 4.0mph /  6.4km/h 7.0mph /  11.3km/h 25% 0.00in /  0mm 469.0 W/m2
09:04 61.2 °F /  16.2 °C 24.1 °F /  -4.4 °C 30.44in /  1030.7hPa ENE 2.0mph /  3.2km/h 6.0mph /  9.7km/h 24% 0.00in /  0mm 487.0 W/m2
09:10 61.7 °F /  16.5 °C 24.6 °F /  -4.1 °C 30.44in /  1030.7hPa Calm   8.0mph /  12.9km/h 24% 0.00in /  0mm 504.0 W/m2
09:16 62.1 °F /  16.7 °C 24.8 °F /  -4 °C 30.44in /  1030.7hPa ESE 2.0mph /  3.2km/h 7.0mph /  11.3km/h 24% 0.00in /  0mm 520.0 W/m2
09:22 62.8 °F /  17.1 °C 24.4 °F /  -4.2 °C 30.44in /  1030.7hPa Calm   6.0mph /  9.7km/h 23% 0.00in /  0mm 538.0 W/m2
09:28 63.1 °F /  17.3 °C 24.8 °F /  -4 °C 30.44in /  1030.7hPa ESE 0.9mph /  1.4km/h 4.0mph /  6.4km/h 23% 0.00in /  0mm 554.0 W/m2
09:34 63.7 °F /  17.6 °C 25.2 °F /  -3.8 °C 30.44in /  1030.7hPa East 0.9mph /  1.4km/h 3.0mph /  4.8km/h 23% 0.00in /  0mm 570.0 W/m2
09:40 64.2 °F /  17.9 °C 24.6 °F /  -4.1 °C 30.44in /  1030.7hPa NE 0.9mph /  1.4km/h 8.0mph /  12.9km/h 22% 0.00in /  0mm 582.0 W/m2
09:46 64.9 °F /  18.3 °C 25.2 °F /  -3.8 °C 30.44in /  1030.7hPa Calm   8.0mph /  12.9km/h 22% 0.00in /  0mm 596.0 W/m2
09:53 65.5 °F /  18.6 °C 24.4 °F /  -4.2 °C 30.44in /  1030.7hPa ESE 2.0mph /  3.2km/h 9.0mph /  14.5km/h 21% 0.00in /  0mm 608.0 W/m2
09:59 65.5 °F /  18.6 °C 24.4 °F /  -4.2 °C 30.43in /  1030.4hPa NE 2.0mph /  3.2km/h 7.0mph /  11.3km/h 21% 0.00in /  0mm 624.0 W/m2
10:05 65.7 °F /  18.7 °C 24.6 °F /  -4.1 °C 30.44in /  1030.7hPa Calm   10.0mph /  16.1km/h 21% 0.00in /  0mm 635.0 W/m2
10:11 65.7 °F /  18.7 °C 24.6 °F /  -4.1 °C 30.43in /  1030.4hPa East 0.9mph /  1.4km/h 12.0mph /  19.3km/h 21% 0.00in /  0mm 645.0 W/m2
10:17 66.0 °F /  18.9 °C 25.0 °F /  -3.9 °C 30.43in /  1030.4hPa NNE 0.9mph /  1.4km/h 6.0mph /  9.7km/h 21% 0.00in /  0mm 656.0 W/m2
10:23 66.4 °F /  19.1 °C 24.1 °F /  -4.4 °C 30.43in /  1030.4hPa NE 4.9mph /  7.9km/h 10.0mph /  16.1km/h 20% 0.00in /  0mm 664.0 W/m2
10:29 66.6 °F /  19.2 °C 24.3 °F /  -4.3 °C 30.43in /  1030.4hPa ENE 2.9mph /  4.7km/h 11.0mph /  17.7km/h 20% 0.00in /  0mm 675.0 W/m2
10:35 66.9 °F /  19.4 °C 24.6 °F /  -4.1 °C 30.42in /  1030hPa East 4.0mph /  6.4km/h 5.0mph /  8km/h 20% 0.00in /  0mm 684.0 W/m2
10:42 67.1 °F /  19.5 °C 23.5 °F /  -4.7 °C 30.42in /  1030hPa NE 6.9mph /  11.1km/h 10.0mph /  16.1km/h 19% 0.00in /  0mm 693.0 W/m2
10:48 67.3 °F /  19.6 °C 24.8 °F /  -4 °C 30.41in /  1029.7hPa Calm   4.0mph /  6.4km/h 20% 0.00in /  0mm 703.0 W/m2
10:54 67.6 °F /  19.8 °C 23.9 °F /  -4.5 °C 30.41in /  1029.7hPa NE 0.9mph /  1.4km/h 11.0mph /  17.7km/h 19% 0.00in /  0mm 708.0 W/m2
11:00 68.0 °F /  20 °C 22.8 °F /  -5.1 °C 30.41in /  1029.7hPa ENE 4.0mph /  6.4km/h 9.0mph /  14.5km/h 18% 0.00in /  0mm 715.0 W/m2
11:06 68.4 °F /  20.2 °C 23.2 °F /  -4.9 °C 30.41in /  1029.7hPa NNE 2.0mph /  3.2km/h 13.0mph /  20.9km/h 18% 0.00in /  0mm 719.0 W/m2
11:12 68.2 °F /  20.1 °C 23.0 °F /  -5 °C 30.41in /  1029.7hPa ESE 4.0mph /  6.4km/h 8.0mph /  12.9km/h 18% 0.00in /  0mm 728.0 W/m2
11:18 68.4 °F /  20.2 °C 23.2 °F /  -4.9 °C 30.40in /  1029.3hPa ENE 0.9mph /  1.4km/h 8.0mph /  12.9km/h 18% 0.00in /  0mm 729.0 W/m2
11:24 68.4 °F /  20.2 °C 23.2 °F /  -4.9 °C 30.40in /  1029.3hPa North 0.9mph /  1.4km/h 12.0mph /  19.3km/h 18% 0.00in /  0mm 733.0 W/m2
11:31 68.5 °F /  20.3 °C 23.4 °F /  -4.8 °C 30.40in /  1029.3hPa SE 4.0mph /  6.4km/h 10.0mph /  16.1km/h 18% 0.00in /  0mm 737.0 W/m2
11:37 68.5 °F /  20.3 °C 23.4 °F /  -4.8 °C 30.38in /  1028.7hPa ENE 2.9mph /  4.7km/h 6.0mph /  9.7km/h 18% 0.00in /  0mm 737.0 W/m2
11:43 68.7 °F /  20.4 °C 23.5 °F /  -4.7 °C 30.38in /  1028.7hPa NE 2.9mph /  4.7km/h 8.0mph /  12.9km/h 18% 0.00in /  0mm 740.0 W/m2
11:49 69.1 °F /  20.6 °C 22.5 °F /  -5.3 °C 30.38in /  1028.7hPa ENE 2.9mph /  4.7km/h 10.0mph /  16.1km/h 17% 0.00in /  0mm 742.0 W/m2
11:55 69.3 °F /  20.7 °C 23.9 °F /  -4.5 °C 30.38in /  1028.7hPa Calm   7.0mph /  11.3km/h 18% 0.00in /  0mm 742.0 W/m2
12:01 69.4 °F /  20.8 °C 24.1 °F /  -4.4 °C 30.37in /  1028.3hPa ENE 2.9mph /  4.7km/h 7.0mph /  11.3km/h 18% 0.00in /  0mm 740.0 W/m2
12:07 70.0 °F /  21.1 °C 23.2 °F /  -4.9 °C 30.37in /  1028.3hPa East 4.9mph /  7.9km/h 8.0mph /  12.9km/h 17% 0.00in /  0mm 737.0 W/m2
12:13 70.0 °F /  21.1 °C 24.4 °F /  -4.2 °C 30.36in /  1028hPa Calm   5.0mph /  8km/h 18% 0.00in /  0mm 735.0 W/m2
12:19 70.2 °F /  21.2 °C 23.4 °F /  -4.8 °C 30.36in /  1028hPa ESE 2.0mph /  3.2km/h 7.0mph /  11.3km/h 17% 0.00in /  0mm 731.0 W/m2
12:26 70.2 °F /  21.2 °C 23.4 °F /  -4.8 °C 30.36in /  1028hPa SE 2.0mph /  3.2km/h 7.0mph /  11.3km/h 17% 0.00in /  0mm 731.0 W/m2
12:32 70.2 °F /  21.2 °C 23.4 °F /  -4.8 °C 30.36in /  1028hPa Calm   7.0mph /  11.3km/h 17% 0.00in /  0mm 724.0 W/m2
12:38 70.5 °F /  21.4 °C 23.5 °F /  -4.7 °C 30.35in /  1027.7hPa East 0.9mph /  1.4km/h 8.0mph /  12.9km/h 17% 0.00in /  0mm 722.0 W/m2
12:44 70.9 °F /  21.6 °C 22.5 °F /  -5.3 °C 30.35in /  1027.7hPa ESE 2.9mph /  4.7km/h 10.0mph /  16.1km/h 16% 0.00in /  0mm 719.0 W/m2
12:50 71.1 °F /  21.7 °C 24.1 °F /  -4.4 °C 30.34in /  1027.3hPa North 0.9mph /  1.4km/h 4.0mph /  6.4km/h 17% 0.00in /  0mm 715.0 W/m2
12:56 71.2 °F /  21.8 °C 21.2 °F /  -6 °C 30.34in /  1027.3hPa NE 2.0mph /  3.2km/h 10.0mph /  16.1km/h 15% 0.00in /  0mm 707.0 W/m2
13:02 71.2 °F /  21.8 °C 22.8 °F /  -5.1 °C 30.34in /  1027.3hPa ESE 2.9mph /  4.7km/h 9.0mph /  14.5km/h 16% 0.00in /  0mm 700.0 W/m2
13:08 71.2 °F /  21.8 °C 21.2 °F /  -6 °C 30.34in /  1027.3hPa ENE 4.0mph /  6.4km/h 11.0mph /  17.7km/h 15% 0.00in /  0mm 687.0 W/m2
13:15 71.4 °F /  21.9 °C 21.4 °F /  -5.9 °C 30.33in /  1027hPa SE 6.9mph /  11.1km/h 12.0mph /  19.3km/h 15% 0.00in /  0mm 680.0 W/m2
13:21 71.2 °F /  21.8 °C 22.8 °F /  -5.1 °C 30.33in /  1027hPa Calm   10.0mph /  16.1km/h 16% 0.00in /  0mm 673.0 W/m2
13:27 71.4 °F /  21.9 °C 22.8 °F /  -5.1 °C 30.33in /  1027hPa NE 6.9mph /  11.1km/h 8.0mph /  12.9km/h 16% 0.00in /  0mm 661.0 W/m2
13:33 71.6 °F /  22 °C 23.0 °F /  -5 °C 30.33in /  1027hPa Calm   6.0mph /  9.7km/h 16% 0.00in /  0mm 650.0 W/m2
13:39 71.8 °F /  22.1 °C 21.6 °F /  -5.8 °C 30.33in /  1027hPa ENE 6.9mph /  11.1km/h 10.0mph /  16.1km/h 15% 0.00in /  0mm 642.0 W/m2
13:45 71.8 °F /  22.1 °C 21.6 °F /  -5.8 °C 30.33in /  1027hPa NE 0.9mph /  1.4km/h 5.0mph /  8km/h 15% 0.00in /  0mm 629.0 W/m2
13:51 72.1 °F /  22.3 °C 21.9 °F /  -5.6 °C 30.32in /  1026.6hPa East 6.9mph /  11.1km/h 7.0mph /  11.3km/h 15% 0.00in /  0mm 617.0 W/m2
13:57 72.1 °F /  22.3 °C 21.9 °F /  -5.6 °C 30.32in /  1026.6hPa NE 2.9mph /  4.7km/h 9.0mph /  14.5km/h 15% 0.00in /  0mm 605.0 W/m2
14:03 72.1 °F /  22.3 °C 21.9 °F /  -5.6 °C 30.32in /  1026.6hPa NNE 0.9mph /  1.4km/h 5.0mph /  8km/h 15% 0.00in /  0mm 589.0 W/m2
14:10 71.8 °F /  22.1 °C 21.6 °F /  -5.8 °C 30.32in /  1026.6hPa SE 0.9mph /  1.4km/h 6.0mph /  9.7km/h 15% 0.00in /  0mm 577.0 W/m2
14:16 72.0 °F /  22.2 °C 21.7 °F /  -5.7 °C 30.32in /  1026.6hPa ESE 2.9mph /  4.7km/h 9.0mph /  14.5km/h 15% 0.00in /  0mm 561.0 W/m2
14:22 71.8 °F /  22.1 °C 21.6 °F /  -5.8 °C 30.32in /  1026.6hPa SSE 2.0mph /  3.2km/h 5.0mph /  8km/h 15% 0.00in /  0mm 543.0 W/m2
14:28 71.6 °F /  22 °C 23.0 °F /  -5 °C 30.31in /  1026.3hPa NE 6.0mph /  9.7km/h 8.0mph /  12.9km/h 16% 0.00in /  0mm 531.0 W/m2
14:34 71.8 °F /  22.1 °C 21.6 °F /  -5.8 °C 30.32in /  1026.6hPa NE 6.9mph /  11.1km/h 8.0mph /  12.9km/h 15% 0.00in /  0mm 513.0 W/m2
14:40 72.0 °F /  22.2 °C 21.7 °F /  -5.7 °C 30.32in /  1026.6hPa NNE 2.0mph /  3.2km/h 5.0mph /  8km/h 15% 0.00in /  0mm 497.0 W/m2
14:47 71.8 °F /  22.1 °C 21.6 °F /  -5.8 °C 30.31in /  1026.3hPa ESE 6.9mph /  11.1km/h 9.0mph /  14.5km/h 15% 0.00in /  0mm 478.0 W/m2
14:53 71.8 °F /  22.1 °C 21.6 °F /  -5.8 °C 30.32in /  1026.6hPa Calm   4.0mph /  6.4km/h 15% 0.00in /  0mm 462.0 W/m2
14:59 71.6 °F /  22 °C 21.6 °F /  -5.8 °C 30.32in /  1026.6hPa Calm   6.0mph /  9.7km/h 15% 0.00in /  0mm 443.0 W/m2
15:05 71.8 °F /  22.1 °C 21.6 °F /  -5.8 °C 30.32in /  1026.6hPa East 2.9mph /  4.7km/h 11.0mph /  17.7km/h 15% 0.00in /  0mm 427.0 W/m2
15:11 71.8 °F /  22.1 °C 19.9 °F /  -6.7 °C 30.32in /  1026.6hPa NNE 4.0mph /  6.4km/h 8.0mph /  12.9km/h 14% 0.00in /  0mm 410.0 W/m2
15:17 71.4 °F /  21.9 °C 19.8 °F /  -6.8 °C 30.32in /  1026.6hPa NE 6.0mph /  9.7km/h 7.0mph /  11.3km/h 14% 0.00in /  0mm 392.0 W/m2
15:23 71.1 °F /  21.7 °C 21.0 °F /  -6.1 °C 30.32in /  1026.6hPa East 0.9mph /  1.4km/h 5.0mph /  8km/h 15% 0.00in /  0mm 371.0 W/m2
15:29 70.7 °F /  21.5 °C 22.3 °F /  -5.4 °C 30.32in /  1026.6hPa ENE 2.0mph /  3.2km/h 6.0mph /  9.7km/h 16% 0.00in /  0mm 350.0 W/m2
15:35 70.5 °F /  21.4 °C 20.7 °F /  -6.3 °C 30.32in /  1026.6hPa East 2.9mph /  4.7km/h 6.0mph /  9.7km/h 15% 0.00in /  0mm 332.0 W/m2
15:42 70.5 °F /  21.4 °C 22.1 °F /  -5.5 °C 30.32in /  1026.6hPa ENE 2.9mph /  4.7km/h 6.0mph /  9.7km/h 16% 0.00in /  0mm 278.0 W/m2
15:48 70.3 °F /  21.3 °C 22.1 °F /  -5.5 °C 30.32in /  1026.6hPa Calm   7.0mph /  11.3km/h 16% 0.00in /  0mm 47.0 W/m2
15:54 70.2 °F /  21.2 °C 21.9 °F /  -5.6 °C 30.32in /  1026.6hPa NNE 4.0mph /  6.4km/h 8.0mph /  12.9km/h 16% 0.00in /  0mm 44.0 W/m2
16:00 70.0 °F /  21.1 °C 21.7 °F /  -5.7 °C 30.32in /  1026.6hPa ESE 0.9mph /  1.4km/h 9.0mph /  14.5km/h 16% 0.00in /  0mm 40.0 W/m2
16:06 69.6 °F /  20.9 °C 21.4 °F /  -5.9 °C 30.32in /  1026.6hPa ENE 6.0mph /  9.7km/h 9.0mph /  14.5km/h 16% 0.00in /  0mm 39.0 W/m2
16:12 69.4 °F /  20.8 °C 21.2 °F /  -6 °C 30.32in /  1026.6hPa East 6.9mph /  11.1km/h 7.0mph /  11.3km/h 16% 0.00in /  0mm 35.0 W/m2
16:18 69.1 °F /  20.6 °C 21.0 °F /  -6.1 °C 30.32in /  1026.6hPa ESE 4.0mph /  6.4km/h 5.0mph /  8km/h 16% 0.00in /  0mm 35.0 W/m2
16:24 68.7 °F /  20.4 °C 20.7 °F /  -6.3 °C 30.32in /  1026.6hPa ESE 4.0mph /  6.4km/h 8.0mph /  12.9km/h 16% 0.00in /  0mm 32.0 W/m2
16:30 68.4 °F /  20.2 °C 20.5 °F /  -6.4 °C 30.32in /  1026.6hPa NE 2.9mph /  4.7km/h 7.0mph /  11.3km/h 16% 0.00in /  0mm 44.0 W/m2
16:37 68.2 °F /  20.1 °C 21.7 °F /  -5.7 °C 30.32in /  1026.6hPa Calm   7.0mph /  11.3km/h 17% 0.00in /  0mm 26.0 W/m2
16:43 67.8 °F /  19.9 °C 21.4 °F /  -5.9 °C 30.32in /  1026.6hPa NE 0.9mph /  1.4km/h 5.0mph /  8km/h 17% 0.00in /  0mm 28.0 W/m2
16:49 67.6 °F /  19.8 °C 21.2 °F /  -6 °C 30.32in /  1026.6hPa Calm   6.0mph /  9.7km/h 17% 0.00in /  0mm 21.0 W/m2
16:55 67.3 °F /  19.6 °C 21.0 °F /  -6.1 °C 30.33in /  1027hPa East 0.9mph /  1.4km/h 2.0mph /  3.2km/h 17% 0.00in /  0mm 21.0 W/m2
17:01 66.9 °F /  19.4 °C 22.1 °F /  -5.5 °C 30.33in /  1027hPa East 0.9mph /  1.4km/h 4.0mph /  6.4km/h 18% 0.00in /  0mm 18.0 W/m2
17:07 66.6 °F /  19.2 °C 21.7 °F /  -5.7 °C 30.33in /  1027hPa ESE 2.9mph /  4.7km/h 3.0mph /  4.8km/h 18% 0.00in /  0mm 14.0 W/m2
17:13 66.4 °F /  19.1 °C 21.6 °F /  -5.8 °C 30.33in /  1027hPa Calm   2.0mph /  3.2km/h 18% 0.00in /  0mm 11.0 W/m2
17:20 65.8 °F /  18.8 °C 21.2 °F /  -6 °C 30.33in /  1027hPa Calm     18% 0.00in /  0mm 7.0 W/m2
17:26 65.5 °F /  18.6 °C 22.1 °F /  -5.5 °C 30.33in /  1027hPa Calm     19% 0.00in /  0mm 5.0 W/m2
17:32 64.8 °F /  18.2 °C 21.6 °F /  -5.8 °C 30.34in /  1027.3hPa Calm     19% 0.00in /  0mm 0.0 W/m2
17:38 64.2 °F /  17.9 °C 22.3 °F /  -5.4 °C 30.34in /  1027.3hPa Calm     20% 0.00in /  0mm 0.0 W/m2
17:44 63.7 °F /  17.6 °C 21.9 °F /  -5.6 °C 30.34in /  1027.3hPa Calm     20% 0.00in /  0mm 0.0 W/m2
17:50 63.0 °F /  17.2 °C 22.5 °F /  -5.3 °C 30.34in /  1027.3hPa Calm     21% 0.00in /  0mm 0.0 W/m2
17:56 62.1 °F /  16.7 °C 21.7 °F /  -5.7 °C 30.34in /  1027.3hPa Calm     21% 0.00in /  0mm 0.0 W/m2
18:02 61.3 °F /  16.3 °C 22.1 °F /  -5.5 °C 30.35in /  1027.7hPa Calm     22% 0.00in /  0mm 0.0 W/m2
18:09 60.6 °F /  15.9 °C 22.6 °F /  -5.2 °C 30.35in /  1027.7hPa Calm     23% 0.00in /  0mm 0.0 W/m2
18:15 59.9 °F /  15.5 °C 21.9 °F /  -5.6 °C 30.35in /  1027.7hPa Calm     23% 0.00in /  0mm 0.0 W/m2
18:21 59.2 °F /  15.1 °C 22.5 °F /  -5.3 °C 30.35in /  1027.7hPa Calm     24% 0.00in /  0mm 0.0 W/m2
18:27 58.6 °F /  14.8 °C 21.9 °F /  -5.6 °C 30.35in /  1027.7hPa Calm     24% 0.00in /  0mm 0.0 W/m2
18:33 57.9 °F /  14.4 °C 21.4 °F /  -5.9 °C 30.36in /  1028hPa Calm     24% 0.00in /  0mm 0.0 W/m2
18:39 57.7 °F /  14.3 °C 22.1 °F /  -5.5 °C 30.36in /  1028hPa Calm     25% 0.00in /  0mm 0.0 W/m2
18:46 57.4 °F /  14.1 °C 21.9 °F /  -5.6 °C 30.36in /  1028hPa Calm     25% 0.00in /  0mm 0.0 W/m2
18:52 56.8 °F /  13.8 °C 21.4 °F /  -5.9 °C 30.36in /  1028hPa Calm     25% 0.00in /  0mm 0.0 W/m2
18:58 56.7 °F /  13.7 °C 21.2 °F /  -6 °C 30.36in /  1028hPa Calm     25% 0.00in /  0mm 0.0 W/m2
19:04 56.3 °F /  13.5 °C 21.9 °F /  -5.6 °C 30.37in /  1028.3hPa Calm     26% 0.00in /  0mm 0.0 W/m2
19:10 55.9 °F /  13.3 °C 21.6 °F /  -5.8 °C 30.37in /  1028.3hPa Calm     26% 0.00in /  0mm 0.0 W/m2
19:16 55.6 °F /  13.1 °C 22.1 °F /  -5.5 °C 30.37in /  1028.3hPa Calm   1.0mph /  1.6km/h 27% 0.00in /  0mm 0.0 W/m2
19:22 55.2 °F /  12.9 °C 21.7 °F /  -5.7 °C 30.37in /  1028.3hPa Calm     27% 0.00in /  0mm 0.0 W/m2
19:28 55.0 °F /  12.8 °C 21.7 °F /  -5.7 °C 30.37in /  1028.3hPa Calm   1.0mph /  1.6km/h 27% 0.00in /  0mm 0.0 W/m2
19:35 54.9 °F /  12.7 °C 21.6 °F /  -5.8 °C 30.38in /  1028.7hPa Calm   1.0mph /  1.6km/h 27% 0.00in /  0mm 0.0 W/m2
19:41 54.7 °F /  12.6 °C 21.4 °F /  -5.9 °C 30.38in /  1028.7hPa Calm   1.0mph /  1.6km/h 27% 0.00in /  0mm 0.0 W/m2
19:47 54.5 °F /  12.5 °C 21.2 °F /  -6 °C 30.38in /  1028.7hPa Calm   2.0mph /  3.2km/h 27% 0.00in /  0mm 0.0 W/m2
19:53 54.1 °F /  12.3 °C 20.8 °F /  -6.2 °C 30.38in /  1028.7hPa Calm     27% 0.00in /  0mm 0.0 W/m2
19:59 54.0 °F /  12.2 °C 21.6 °F /  -5.8 °C 30.38in /  1028.7hPa Calm   1.0mph /  1.6km/h 28% 0.00in /  0mm 0.0 W/m2
20:05 54.0 °F /  12.2 °C 21.6 °F /  -5.8 °C 30.38in /  1028.7hPa Calm   1.0mph /  1.6km/h 28% 0.00in /  0mm 0.0 W/m2
20:12 53.8 °F /  12.1 °C 21.4 °F /  -5.9 °C 30.38in /  1028.7hPa NE 0.9mph /  1.4km/h 1.0mph /  1.6km/h 28% 0.00in /  0mm 0.0 W/m2
20:18 53.4 °F /  11.9 °C 21.2 °F /  -6 °C 30.38in /  1028.7hPa Calm     28% 0.00in /  0mm 0.0 W/m2
20:24 53.2 °F /  11.8 °C 21.0 °F /  -6.1 °C 30.39in /  1029hPa Calm     28% 0.00in /  0mm 0.0 W/m2
20:30 53.1 °F /  11.7 °C 21.6 °F /  -5.8 °C 30.39in /  1029hPa Calm     29% 0.00in /  0mm 0.0 W/m2
20:36 52.9 °F /  11.6 °C 21.6 °F /  -5.8 °C 30.39in /  1029hPa Calm     29% 0.00in /  0mm 0.0 W/m2
20:42 52.7 °F /  11.5 °C 21.4 °F /  -5.9 °C 30.40in /  1029.3hPa Calm     29% 0.00in /  0mm 0.0 W/m2
20:48 52.5 °F /  11.4 °C 21.2 °F /  -6 °C 30.40in /  1029.3hPa Calm   1.0mph /  1.6km/h 29% 0.00in /  0mm 0.0 W/m2
20:54 52.2 °F /  11.2 °C 20.8 °F /  -6.2 °C 30.40in /  1029.3hPa Calm     29% 0.00in /  0mm 0.0 W/m2
21:00 52.0 °F /  11.1 °C 21.6 °F /  -5.8 °C 30.40in /  1029.3hPa Calm   4.0mph /  6.4km/h 30% 0.00in /  0mm 0.0 W/m2
21:07 51.6 °F /  10.9 °C 21.2 °F /  -6 °C 30.40in /  1029.3hPa Calm   1.0mph /  1.6km/h 30% 0.00in /  0mm 0.0 W/m2
21:13 51.4 °F /  10.8 °C 21.0 °F /  -6.1 °C 30.40in /  1029.3hPa Calm   1.0mph /  1.6km/h 30% 0.00in /  0mm 0.0 W/m2
21:19 51.1 °F /  10.6 °C 20.7 °F /  -6.3 °C 30.40in /  1029.3hPa Calm   3.0mph /  4.8km/h 30% 0.00in /  0mm 0.0 W/m2
21:25 50.7 °F /  10.4 °C 21.2 °F /  -6 °C 30.40in /  1029.3hPa Calm     31% 0.00in /  0mm 0.0 W/m2
21:31 50.5 °F /  10.3 °C 21.0 °F /  -6.1 °C 30.41in /  1029.7hPa Calm   1.0mph /  1.6km/h 31% 0.00in /  0mm 0.0 W/m2
21:37 50.4 °F /  10.2 °C 21.6 °F /  -5.8 °C 30.41in /  1029.7hPa Calm   1.0mph /  1.6km/h 32% 0.00in /  0mm 0.0 W/m2
21:43 50.2 °F /  10.1 °C 21.4 °F /  -5.9 °C 30.41in /  1029.7hPa Calm   2.0mph /  3.2km/h 32% 0.00in /  0mm 0.0 W/m2
21:49 50.0 °F /  10 °C 21.4 °F /  -5.9 °C 30.41in /  1029.7hPa Calm   1.0mph /  1.6km/h 32% 0.00in /  0mm 0.0 W/m2
21:55 49.8 °F /  9.9 °C 21.2 °F /  -6 °C 30.42in /  1030hPa Calm   2.0mph /  3.2km/h 32% 0.00in /  0mm 0.0 W/m2
22:01 49.6 °F /  9.8 °C 21.0 °F /  -6.1 °C 30.42in /  1030hPa East 0.9mph /  1.4km/h 3.0mph /  4.8km/h 32% 0.00in /  0mm 0.0 W/m2
22:07 49.6 °F /  9.8 °C 21.0 °F /  -6.1 °C 30.42in /  1030hPa ESE 0.9mph /  1.4km/h 1.0mph /  1.6km/h 32% 0.00in /  0mm 0.0 W/m2
22:14 49.6 °F /  9.8 °C 21.7 °F /  -5.7 °C 30.42in /  1030hPa Calm   4.0mph /  6.4km/h 33% 0.00in /  0mm 0.0 W/m2
22:20 49.5 °F /  9.7 °C 21.6 °F /  -5.8 °C 30.42in /  1030hPa Calm   2.0mph /  3.2km/h 33% 0.00in /  0mm 0.0 W/m2
22:26 49.5 °F /  9.7 °C 21.6 °F /  -5.8 °C 30.42in /  1030hPa Calm   1.0mph /  1.6km/h 33% 0.00in /  0mm 0.0 W/m2
22:32 49.3 °F /  9.6 °C 21.4 °F /  -5.9 °C 30.42in /  1030hPa ESE 0.9mph /  1.4km/h 2.0mph /  3.2km/h 33% 0.00in /  0mm 0.0 W/m2
22:38 48.9 °F /  9.4 °C 21.0 °F /  -6.1 °C 30.42in /  1030hPa Calm   3.0mph /  4.8km/h 33% 0.00in /  0mm 0.0 W/m2
22:44 48.9 °F /  9.4 °C 21.7 °F /  -5.7 °C 30.42in /  1030hPa Calm   3.0mph /  4.8km/h 34% 0.00in /  0mm 0.0 W/m2
22:50 49.1 °F /  9.5 °C 21.9 °F /  -5.6 °C 30.42in /  1030hPa Calm   2.0mph /  3.2km/h 34% 0.00in /  0mm 0.0 W/m2
22:56 49.1 °F /  9.5 °C 21.9 °F /  -5.6 °C 30.42in /  1030hPa Calm     34% 0.00in /  0mm 0.0 W/m2
23:02 48.9 °F /  9.4 °C 21.7 °F /  -5.7 °C 30.42in /  1030hPa Calm   3.0mph /  4.8km/h 34% 0.00in /  0mm 0.0 W/m2
23:08 48.9 °F /  9.4 °C 21.7 °F /  -5.7 °C 30.42in /  1030hPa ENE 2.0mph /  3.2km/h 2.0mph /  3.2km/h 34% 0.00in /  0mm 0.0 W/m2
23:14 48.9 °F /  9.4 °C 21.7 °F /  -5.7 °C 30.42in /  1030hPa SE 2.0mph /  3.2km/h 3.0mph /  4.8km/h 34% 0.00in /  0mm 0.0 W/m2
23:20 48.7 °F /  9.3 °C 21.6 °F /  -5.8 °C 30.42in /  1030hPa Calm   3.0mph /  4.8km/h 34% 0.00in /  0mm 0.0 W/m2
23:26 48.6 °F /  9.2 °C 22.1 °F /  -5.5 °C 30.41in /  1029.7hPa Calm   1.0mph /  1.6km/h 35% 0.00in /  0mm 0.0 W/m2
23:32 48.6 °F /  9.2 °C 22.1 °F /  -5.5 °C 30.41in /  1029.7hPa ESE 0.9mph /  1.4km/h 2.0mph /  3.2km/h 35% 0.00in /  0mm 0.0 W/m2
23:38 48.4 °F /  9.1 °C 21.9 °F /  -5.6 °C 30.41in /  1029.7hPa Calm   3.0mph /  4.8km/h 35% 0.00in /  0mm 0.0 W/m2
23:44 48.6 °F /  9.2 °C 22.1 °F /  -5.5 °C 30.41in /  1029.7hPa Calm   1.0mph /  1.6km/h 35% 0.00in /  0mm 0.0 W/m2
23:50 48.6 °F /  9.2 °C 22.8 °F /  -5.1 °C 30.41in /  1029.7hPa Calm     36% 0.00in /  0mm 0.0 W/m2
23:57 48.7 °F /  9.3 °C 23.0 °F /  -5 °C 30.41in /  1029.7hPa Calm   1.0mph /  1.6km/h 36% 0.00in /  0mm 0.0 W/m2
Olympia, Windhoek, Namibia
Compliments of Weather Underground - 3 mb